Beaver Crossing, NE (68313)

10:25 AM CST on December 04, 2016 (GMT -0600)
Beckler Farms | | Change Station

Elev 1522 ft 40.73 °N, 97.23 °W | Updated 13 minutes ago

Clear
Clear
30.3 °F
Feels Like 30 °F
N
0.0
Wind Variable Wind from NE

Today
High -- | Low -- °F
--% Chance of Precip.
Yesterday
High -- | Low -- °F
Precip. -- in
Pressure 29.99 in
Visibility 10.0 miles
Clouds Clear
Windchill 30 °F
Dew Point 30 °F
Humidity 97%
Rainfall 0.00 in
Snow Depth Not available.
7:37 AM 5:01 PM
Waxing Crescent, 23% visible
METAR KJYR 041615Z AUTO 26006KT 10SM CLR 00/M01 A2999 RMK AO2
Pressure 29.99 in
Visibility 10.0 miles
Clouds Clear
Windchill 30 °F
Dew Point 30 °F
Humidity 97%
Rainfall 0.00 in
Snow Depth Not available.
7:37 AM 5:01 PM
Waxing Crescent, 23% visible
METAR KJYR 041615Z AUTO 26006KT 10SM CLR 00/M01 A2999 RMK AO2

10-Day Weather Forecast

Almanac

Astronomy

Dec. 04, 2016 Rise Set
Actual Time
Civil Twilight
Nautical Twilight
Astronomical Twilight
Moon
Length of Visible Light
Length of Day
Tomorrow will be .
, % of the Moon is Illuminated

Today's Extremes

State Highs State Lows

Community

WunderPhotos

Upload Photos

1,955,609 photos uploaded!

WunderBlog® & News

Nearby

Air Quality

  Air Quality AQ Index Pollutant
Not available.

Snow Depth

Station Depth Elevation

Earthquake Activity

City Distance Mag. Time & Date
Minimum magnitude displayed is 2.5.

Coastal Water Temperatures

Place Temperature

Stations

Nearby Weather Stations

Station Location Temp. Windchill Dew Point Humidity Wind Precip. Elev Updated Type
                   

Watches & Warnings

There are currently no watches in effect.